Time;durP1;ratioP1;P1;durP2;ratioP2;P2;SDS_P1;SDS_P2;PMS_P1;PMS_P2;Temp;Humidity;BMP_temperature;BMP_pressure;BME280_temperature;BME280_humidity;BME280_pressure;Samples;Min_cycle;Max_cycle;Signal;HPM_P1;HPM_P2
2023/05/08 04:52:19;;;;;;;8.83;6.17;;;11.40;1.00;;;;;;6126745;23;20297;-94
2023/05/08 04:54:46;;;;;;;10.73;6.50;;;11.20;1.00;;;;;;6127953;23;20161;-93
2023/05/08 04:57:13;;;;;;;8.40;6.63;;;10.90;1.00;;;;;;6127311;23;20181;-93
2023/05/08 04:59:40;;;;;;;8.00;6.20;;;10.60;1.00;;;;;;6127569;23;20519;-93
2023/05/08 05:02:08;;;;;;;8.47;6.57;;;10.30;1.00;;;;;;6127699;23;20176;-92
2023/05/08 05:04:35;;;;;;;8.27;6.40;;;10.10;1.00;;;;;;6127491;23;20205;-93
2023/05/08 05:07:02;;;;;;;9.17;6.30;;;9.90;1.00;;;;;;6127850;23;20180;-92
2023/05/08 05:09:30;;;;;;;9.27;6.63;;;9.70;1.00;;;;;;6127836;23;20507;-93
2023/05/08 05:11:57;;;;;;;8.07;6.53;;;9.60;1.00;;;;;;6128204;23;20174;-92
2023/05/08 05:14:23;;;;;;;8.33;6.97;;;9.60;1.00;;;;;;6130606;23;20177;-92
2023/05/08 05:16:50;;;;;;;9.30;6.50;;;9.50;1.00;;;;;;6130357;23;20178;-93
2023/05/08 05:19:17;;;;;;;9.23;6.37;;;9.50;1.00;;;;;;6129070;23;20169;-93
2023/05/08 05:21:44;;;;;;;8.13;6.17;;;9.40;1.00;;;;;;6130010;23;20649;-93
2023/05/08 05:24:11;;;;;;;8.93;5.83;;;9.40;1.40;;;;;;6129699;23;20174;-93
2023/05/08 05:26:39;;;;;;;8.27;6.47;;;9.40;1.00;;;;;;6129586;23;20179;-93
2023/05/08 05:29:07;;;;;;;9.73;6.17;;;9.50;34.70;;;;;;6129209;23;20177;-93
2023/05/08 05:31:33;;;;;;;8.23;6.20;;;9.50;99.90;;;;;;6129623;23;20169;-93
2023/05/08 05:34:00;;;;;;;8.40;5.97;;;9.50;99.90;;;;;;6129544;23;20184;-93
2023/05/08 05:36:28;;;;;;;8.37;5.73;;;9.50;99.90;;;;;;6129210;23;20722;-94
2023/05/08 05:38:55;;;;;;;7.07;5.50;;;9.60;97.60;;;;;;6129725;23;20177;-93
2023/05/08 05:41:22;;;;;;;6.70;5.40;;;9.60;54.30;;;;;;6129426;23;20187;-93
2023/05/08 05:43:50;;;;;;;6.90;5.80;;;9.70;1.00;;;;;;6129502;23;20623;-93
2023/05/08 05:46:17;;;;;;;6.37;5.40;;;9.70;6.40;;;;;;6129409;23;20178;-93
2023/05/08 05:48:44;;;;;;;6.73;5.47;;;9.70;1.00;;;;;;6129314;23;20170;-94
2023/05/08 05:51:11;;;;;;;7.83;6.17;;;9.80;1.00;;;;;;6129134;23;20201;-93
2023/05/08 05:53:37;;;;;;;7.07;5.33;;;9.80;29.20;;;;;;6129393;23;20236;-93
2023/05/08 05:56:05;;;;;;;7.40;5.17;;;9.90;1.00;;;;;;6129294;23;20175;-94
2023/05/08 05:58:31;;;;;;;5.90;5.17;;;10.00;1.00;;;;;;6128993;23;20185;-93
2023/05/08 06:01:00;;;;;;;8.87;5.20;;;10.10;1.00;;;;;;6129260;23;20521;-94
2023/05/08 06:03:27;;;;;;;6.80;5.30;;;10.20;1.00;;;;;;6128923;23;20171;-93
2023/05/08 06:05:54;;;;;;;8.43;4.77;;;10.20;1.00;;;;;;6129124;23;20163;-93
2023/05/08 06:08:21;;;;;;;6.53;4.60;;;10.30;1.00;;;;;;6129284;23;20212;-94
2023/05/08 06:10:48;;;;;;;4.93;4.07;;;10.40;1.00;;;;;;6129321;23;20171;-94
2023/05/08 06:13:14;;;;;;;7.27;3.73;;;10.50;1.00;;;;;;6129132;23;20181;-93
2023/05/08 06:15:41;;;;;;;5.10;4.17;;;10.60;1.00;;;;;;6129407;23;20171;-93
2023/05/08 06:18:09;;;;;;;5.67;3.73;;;10.70;1.00;;;;;;6128801;23;20178;-93
2023/05/08 06:20:37;;;;;;;4.77;3.23;;;10.80;1.00;;;;;;6128941;23;20280;-94
2023/05/08 06:23:04;;;;;;;3.93;3.13;;;10.90;99.90;;;;;;6128814;23;20179;-93
2023/05/08 06:25:31;;;;;;;5.30;3.40;;;11.00;99.90;;;;;;6129288;23;20255;-93
2023/05/08 06:27:58;;;;;;;4.73;3.00;;;11.10;99.90;;;;;;6129175;23;20176;-94
2023/05/08 06:30:25;;;;;;;4.63;3.13;;;11.20;99.90;;;;;;6129001;23;20177;-93
2023/05/08 06:32:51;;;;;;;3.83;3.27;;;11.30;99.90;;;;;;6128547;23;20628;-95
2023/05/08 06:35:20;;;;;;;3.87;3.20;;;11.40;99.90;;;;;;6129170;23;20628;-94
2023/05/08 06:37:47;;;;;;;3.63;3.00;;;11.50;99.90;;;;;;6128753;23;20179;-94
2023/05/08 06:40:14;;;;;;;4.00;2.90;;;11.60;99.90;;;;;;6128556;23;20178;-93
2023/05/08 06:42:41;;;;;;;4.20;2.30;;;11.70;92.40;;;;;;6128669;23;20201;-93
2023/05/08 06:45:08;;;;;;;4.07;2.20;;;11.80;1.00;;;;;;6128785;23;20180;-94
2023/05/08 06:47:35;;;;;;;3.60;2.27;;;11.90;1.00;;;;;;6129400;23;20176;-94
2023/05/08 06:50:03;;;;;;;3.07;2.23;;;12.00;1.00;;;;;;6128734;23;20182;-93
2023/05/08 06:52:31;;;;;;;4.40;2.20;;;12.10;1.00;;;;;;6128665;23;20197;-93
2023/05/08 06:54:58;;;;;;;2.53;2.00;;;12.10;1.00;;;;;;6128619;23;20654;-94
2023/05/08 06:57:28;;;;;;;3.27;2.30;;;12.20;1.00;;;;;;6128346;23;20175;-94
2023/05/08 06:59:54;;;;;;;3.47;2.13;;;12.30;1.00;;;;;;6128488;23;20171;-95
2023/05/08 07:02:21;;;;;;;5.47;2.20;;;12.30;1.00;;;;;;6128584;23;20191;-94
2023/05/08 07:04:48;;;;;;;3.90;2.70;;;12.40;1.00;;;;;;6128922;23;20182;-94
2023/05/08 07:07:15;;;;;;;5.20;2.47;;;12.40;1.00;;;;;;6128448;23;20250;-94
2023/05/08 07:09:43;;;;;;;4.40;2.80;;;12.50;1.00;;;;;;6128483;23;20174;-95
2023/05/08 07:12:10;;;;;;;4.80;2.53;;;12.50;1.00;;;;;;6128367;23;20173;-94
2023/05/08 07:14:36;;;;;;;3.30;2.70;;;12.50;1.00;;;;;;6129006;23;20623;-93
2023/05/08 07:17:08;;;;;;;4.53;3.30;;;12.60;1.00;;;;;;6128679;23;20480;-95
2023/05/08 07:19:36;;;;;;;6.07;2.63;;;12.60;1.00;;;;;;6128770;23;20156;-95
2023/05/08 07:22:04;;;;;;;4.87;3.47;;;12.70;1.00;;;;;;6128566;23;20198;-94
2023/05/08 07:24:30;;;;;;;5.47;3.97;;;12.70;1.00;;;;;;6128660;23;20175;-95
2023/05/08 07:26:59;;;;;;;6.97;4.20;;;12.70;1.00;;;;;;6128785;23;20630;-95
2023/05/08 07:29:26;;;;;;;6.07;3.30;;;12.70;1.00;;;;;;6128360;23;20205;-95
2023/05/08 07:31:52;;;;;;;5.10;3.70;;;12.80;1.00;;;;;;6128796;23;20254;-93
2023/05/08 07:34:19;;;;;;;4.03;3.47;;;12.90;1.00;;;;;;6127641;23;20172;-93
2023/05/08 07:36:46;;;;;;;7.03;3.30;;;12.90;1.00;;;;;;6128437;23;20171;-94
2023/05/08 07:39:13;;;;;;;6.57;3.80;;;13.00;1.00;;;;;;6128484;23;20505;-94
2023/05/08 07:41:40;;;;;;;6.40;3.77;;;13.00;1.00;;;;;;6127998;23;20665;-93
2023/05/08 07:44:08;;;;;;;4.70;3.70;;;13.10;1.00;;;;;;6128265;23;20227;-94
2023/05/08 07:46:35;;;;;;;4.40;3.40;;;13.20;1.00;;;;;;6128376;23;20174;-95
2023/05/08 07:49:02;;;;;;;3.93;3.30;;;13.30;1.00;;;;;;6127944;23;20632;-95
2023/05/08 07:51:29;;;;;;;6.53;3.80;;;13.30;99.90;;;;;;6128141;23;20525;-95
2023/05/08 07:53:56;;;;;;;4.97;3.23;;;13.40;99.90;;;;;;6127890;23;20165;-95
2023/05/08 07:56:23;;;;;;;5.97;4.00;;;13.40;99.90;;;;;;6127861;23;20639;-93
2023/05/08 07:58:50;;;;;;;4.90;3.37;;;13.40;99.90;;;;;;6128335;23;20179;-94
2023/05/08 08:01:18;;;;;;;5.17;3.87;;;13.50;99.90;;;;;;6128060;23;20188;-93
2023/05/08 08:03:45;;;;;;;4.90;3.37;;;13.60;99.90;;;;;;6127924;23;20223;-95
2023/05/08 08:06:12;;;;;;;5.97;3.13;;;13.60;99.90;;;;;;6128147;23;20494;-94
2023/05/08 08:08:39;;;;;;;4.47;3.00;;;13.70;99.90;;;;;;6127866;23;20244;-95
2023/05/08 08:11:06;;;;;;;5.87;4.90;;;13.70;99.90;;;;;;6127897;23;20627;-93
2023/05/08 08:13:33;;;;;;;7.80;5.70;;;13.70;99.90;;;;;;6128052;23;20178;-95
2023/05/08 08:16:00;;;;;;;7.50;5.90;;;13.80;99.90;;;;;;6127884;23;20183;-94
2023/05/08 08:18:28;;;;;;;4.93;3.80;;;13.90;99.90;;;;;;6128107;23;20201;-95
2023/05/08 08:20:54;;;;;;;5.80;3.10;;;14.00;99.90;;;;;;6128303;23;20256;-94
2023/05/08 08:23:21;;;;;;;4.33;3.27;;;14.10;99.90;;;;;;6127802;23;20648;-95
2023/05/08 08:25:49;;;;;;;10.30;5.40;;;14.10;99.90;;;;;;6127886;23;20174;-95
2023/05/08 08:28:16;;;;;;;6.77;3.30;;;14.20;99.90;;;;;;6127903;23;20557;-95
2023/05/08 08:30:43;;;;;;;6.40;3.40;;;14.30;99.90;;;;;;6128039;23;20646;-96
2023/05/08 08:33:10;;;;;;;3.27;2.80;;;14.30;99.90;;;;;;6127800;23;20177;-94
2023/05/08 08:35:38;;;;;;;6.93;3.27;;;14.40;99.90;;;;;;6128327;23;20249;-96
2023/05/08 08:38:05;;;;;;;7.30;3.50;;;14.50;99.90;;;;;;6128247;23;20176;-95
2023/05/08 08:40:32;;;;;;;6.47;3.70;;;14.60;99.90;;;;;;6128765;23;20238;-93
2023/05/08 08:42:59;;;;;;;3.40;2.93;;;14.70;99.90;;;;;;6127938;23;20194;-95
2023/05/08 08:45:26;;;;;;;5.97;3.10;;;14.70;99.90;;;;;;6128262;23;20250;-95
2023/05/08 08:47:53;;;;;;;4.23;3.00;;;14.70;99.90;;;;;;6130416;23;20177;-96
2023/05/08 08:50:22;;;;;;;5.00;2.60;;;14.70;99.90;;;;;;6129788;23;20254;-95
2023/05/08 08:52:56;;;;;;;8.23;5.78;;;14.70;99.90;;;;;;6130514;23;20184;-96
2023/05/08 08:55:24;;;;;;;5.10;2.90;;;14.80;99.90;;;;;;6130444;23;20183;-96
2023/05/08 08:58:01;;;;;;;7.03;4.00;;;14.80;99.90;;;;;;6130512;23;20176;-96
2023/05/08 09:00:31;;;;;;;6.38;2.97;;;14.90;99.90;;;;;;6130259;23;20245;-95
2023/05/08 09:02:58;;;;;;;5.60;3.40;;;14.90;99.90;;;;;;6130198;23;20198;-95
2023/05/08 09:05:25;;;;;;;6.95;4.03;;;14.90;99.90;;;;;;6130900;23;20253;-96
2023/05/08 09:07:55;;;;;;;3.55;2.70;;;15.00;99.90;;;;;;6129740;23;20214;-96
2023/05/08 09:10:24;;;;;;;3.40;2.60;;;15.00;99.90;;;;;;6129986;23;20645;-95
2023/05/08 09:12:51;;;;;;;3.72;2.80;;;15.10;99.90;;;;;;6129481;23;20168;-94
2023/05/08 09:15:19;;;;;;;6.40;3.40;;;15.20;99.90;;;;;;6130008;23;20175;-96
2023/05/08 09:17:46;;;;;;;4.40;3.53;;;15.20;99.90;;;;;;6131485;23;20192;-96
2023/05/08 09:20:14;;;;;;;5.97;3.60;;;15.30;99.90;;;;;;6130796;23;20550;-96
2023/05/08 09:22:43;;;;;;;6.78;3.50;;;15.30;99.90;;;;;;6131562;23;20205;-96
2023/05/08 09:25:11;;;;;;;6.55;3.33;;;15.30;99.90;;;;;;6132554;23;20174;-96
2023/05/08 09:27:38;;;;;;;4.63;3.63;;;15.30;99.90;;;;;;6134111;23;20176;-96
2023/05/08 09:30:07;;;;;;;7.93;3.40;;;15.30;99.90;;;;;;6140876;23;20178;-96
2023/05/08 09:32:35;;;;;;;5.55;3.58;;;15.40;99.90;;;;;;6135627;23;20174;-94
2023/05/08 09:35:03;;;;;;;5.47;3.47;;;15.40;99.90;;;;;;6132609;23;20181;-96
2023/05/08 09:37:30;;;;;;;5.13;3.25;;;15.50;99.90;;;;;;6139848;23;20178;-96
2023/05/08 09:40:15;;;;;;;6.93;3.35;;;15.60;99.90;;;;;;6133525;23;20178;-96
2023/05/08 09:42:42;;;;;;;6.80;5.30;;;15.60;99.90;;;;;;6132015;23;20272;-96
2023/05/08 09:45:10;;;;;;;7.47;4.80;;;15.70;99.90;;;;;;6137773;23;20189;-96
2023/05/08 09:47:38;;;;;;;7.18;3.72;;;15.80;99.90;;;;;;6140371;23;20249;-96
2023/05/08 09:50:07;;;;;;;4.20;3.75;;;15.90;99.90;;;;;;6130673;23;20185;-96
2023/05/08 09:52:35;;;;;;;7.28;3.40;;;15.90;99.90;;;;;;6133062;23;20194;-96
2023/05/08 09:55:04;;;;;;;5.50;3.20;;;16.00;99.90;;;;;;6134453;23;20202;-96
2023/05/08 09:57:35;;;;;;;5.68;3.33;;;16.10;99.90;;;;;;6136045;23;20170;-96
2023/05/08 10:00:04;;;;;;;8.13;3.42;;;16.20;99.90;;;;;;6137357;23;20229;-96
2023/05/08 10:02:32;;;;;;;5.60;4.25;;;16.20;99.90;;;;;;6141611;23;20254;-96
2023/05/08 10:04:59;;;;;;;5.10;3.63;;;16.20;99.90;;;;;;6140822;23;20173;-96
2023/05/08 10:07:30;;;;;;;6.95;3.88;;;16.20;99.90;;;;;;6133949;23;20669;-96
2023/05/08 10:10:02;;;;;;;10.70;3.80;;;16.20;99.90;;;;;;6133269;23;20199;-95
2023/05/08 10:12:29;;;;;;;4.13;3.72;;;16.30;99.90;;;;;;6135118;23;20171;-96
2023/05/08 10:14:58;;;;;;;7.28;4.10;;;16.40;99.90;;;;;;6138451;23;20173;-96
2023/05/08 10:17:37;;;;;;;4.25;3.78;;;16.30;99.90;;;;;;6132167;23;20254;-96
2023/05/08 10:20:08;;;;;;;5.85;3.78;;;16.30;99.90;;;;;;6137218;23;20214;-96
2023/05/08 10:22:38;;;;;;;7.95;3.85;;;16.40;99.90;;;;;;6141862;23;20179;-96
2023/05/08 10:25:12;;;;;;;5.20;4.10;;;16.40;99.90;;;;;;6140877;23;20218;-96
2023/05/08 10:27:49;;;;;;;6.70;3.53;;;16.50;99.90;;;;;;6129699;23;20155;-94
2023/05/08 10:30:19;;;;;;;3.20;2.90;;;16.50;99.90;;;;;;6133979;23;20163;-96
2023/05/08 10:32:50;;;;;;;4.60;3.08;;;16.40;99.90;;;;;;6145264;23;20199;-96
2023/05/08 10:35:18;;;;;;;4.93;3.05;;;16.40;99.90;;;;;;6139238;23;20163;-96
2023/05/08 10:37:47;;;;;;;6.55;3.67;;;16.40;99.90;;;;;;6139444;23;20194;-96
2023/05/08 10:40:14;;;;;;;5.97;3.13;;;16.50;99.90;;;;;;6139459;23;20178;-96
2023/05/08 10:42:42;;;;;;;5.70;3.10;;;16.50;99.90;;;;;;6142824;23;20186;-96
2023/05/08 10:45:10;;;;;;;3.97;3.17;;;16.60;99.90;;;;;;6139818;23;20182;-96
2023/05/08 10:47:47;;;;;;;6.35;3.45;;;16.60;99.90;;;;;;6141200;23;20167;-96
2023/05/08 10:50:38;;;;;;;3.95;3.53;;;16.60;99.90;;;;;;6137845;23;20182;-93
2023/05/08 10:53:11;;;;;;;5.38;3.30;;;16.70;99.90;;;;;;6143193;23;20219;-96
2023/05/08 10:55:41;;;;;;;7.00;2.70;;;16.80;99.90;;;;;;6147496;23;20160;-96
2023/05/08 10:58:13;;;;;;;7.28;3.50;;;16.80;99.90;;;;;;6136711;23;20178;-96
2023/05/08 11:01:12;;;;;;;5.68;3.08;;;16.80;99.90;;;;;;6132332;23;20173;-96
2023/05/08 11:03:42;;;;;;;7.80;3.28;;;16.90;99.90;;;;;;6128829;23;20198;-95
2023/05/08 11:06:10;;;;;;;4.00;2.90;;;16.90;99.90;;;;;;6129835;23;20590;-96
2023/05/08 11:08:48;;;;;;;4.63;3.28;;;16.90;99.90;;;;;;6129500;23;20242;-95
2023/05/08 11:11:25;;;;;;;5.15;2.83;;;16.90;99.90;;;;;;6131304;23;20161;-96
2023/05/08 11:13:58;;;;;;;8.25;3.30;;;16.90;99.90;;;;;;6137811;23;20171;-96
2023/05/08 11:17:02;;;;;;;3.70;2.88;;;17.00;99.90;;;;;;6136074;23;20155;-96
2023/05/08 11:19:30;;;;;;;6.15;3.40;;;17.10;99.90;;;;;;6141529;23;20217;-96
2023/05/08 11:22:20;;;;;;;4.55;3.17;;;17.20;99.90;;;;;;6140818;23;20201;-96
2023/05/08 11:24:50;;;;;;;4.07;2.78;;;17.30;99.90;;;;;;6138439;23;20215;-96
2023/05/08 11:27:17;;;;;;;5.28;2.90;;;17.30;99.90;;;;;;6137397;23;20234;-96
2023/05/08 11:29:44;;;;;;;6.63;3.00;;;17.30;99.90;;;;;;6147136;23;20235;-96
2023/05/08 11:32:11;;;;;;;6.38;3.25;;;17.30;99.90;;;;;;6145698;23;20171;-96
2023/05/08 11:34:49;;;;;;;4.07;2.88;;;17.40;99.90;;;;;;6147269;23;20178;-96
2023/05/08 11:37:20;;;;;;;6.45;3.10;;;17.40;99.90;;;;;;6143044;23;20174;-96
2023/05/08 11:39:47;;;;;;;3.22;2.92;;;17.40;99.90;;;;;;6144708;23;20228;-96
2023/05/08 11:42:35;;;;;;;6.82;2.88;;;17.50;99.90;;;;;;6143539;23;20286;-96
2023/05/08 11:45:08;;;;;;;4.07;3.05;;;17.40;99.90;;;;;;6149640;23;20179;-96
2023/05/08 11:50:14;;;;;;;5.95;3.25;;;17.60;99.90;;;;;;6170164;23;20216;-96
2023/05/08 11:52:42;;;;;;;6.15;3.40;;;17.60;99.90;;;;;;6182708;23;20166;-96
2023/05/08 11:57:44;;;;;;;4.60;3.10;;;17.50;99.90;;;;;;6174206;23;20207;-96
2023/05/08 12:00:12;;;;;;;4.55;2.80;;;17.50;99.90;;;;;;6182417;23;20221;-96
2023/05/08 12:05:27;;;;;;;6.50;3.50;;;17.50;99.90;;;;;;6172080;23;20205;-96
2023/05/08 12:07:53;;;;;;;3.83;3.10;;;17.50;99.90;;;;;;6183702;23;20149;-96
2023/05/08 12:10:20;;;;;;;4.47;3.40;;;17.60;99.90;;;;;;6180766;23;20190;-96
2023/05/08 12:12:49;;;;;;;5.28;2.85;;;17.60;99.90;;;;;;6170795;23;21040;-93
2023/05/08 12:15:18;;;;;;;6.18;2.90;;;17.60;99.90;;;;;;6181753;23;20202;-96
2023/05/08 12:17:45;;;;;;;5.82;3.30;;;17.80;99.90;;;;;;6171901;23;20215;-96
2023/05/08 12:25:26;;;;;;;5.03;3.17;;;17.90;99.90;;;;;;6163361;23;20202;-89
2023/05/08 12:33:04;;;;;;;5.97;3.33;;;17.90;99.90;;;;;;6170586;23;20205;-96
2023/05/08 12:43:12;;;;;;;7.28;3.70;;;18.10;99.90;;;;;;6161716;23;20201;-96
2023/05/08 13:06:50;;;;;;;4.38;3.20;;;18.30;99.90;;;;;;6179582;22;1297464;31
2023/05/08 13:14:56;;;;;;;7.57;2.90;;;18.40;99.90;;;;;;6240490;22;20525;-95
2023/05/08 13:17:23;;;;;;;4.25;2.95;;;18.40;99.90;;;;;;6236704;22;20266;-96
2023/05/08 13:19:50;;;;;;;3.88;2.92;;;18.40;99.90;;;;;;6239393;22;20200;-96
2023/05/08 13:32:40;;;;;;;6.68;3.10;;;18.30;99.90;;;;;;6235989;22;20188;-95
2023/05/08 13:48:05;;;;;;;5.97;3.53;;;18.50;99.90;;;;;;6230820;22;20402;-96
2023/05/08 13:50:32;;;;;;;5.32;2.90;;;18.50;99.90;;;;;;6249416;22;20144;-91
2023/05/08 14:16:17;;;;;;;8.35;2.90;;;18.60;99.90;;;;;;6223370;22;21289;-93
2023/05/08 14:29:06;;;;;;;4.35;3.10;;;18.60;99.90;;;;;;6239171;22;20176;-96
2023/05/08 14:31:34;;;;;;;6.18;3.05;;;18.60;99.90;;;;;;6243770;23;20153;-95
2023/05/08 14:46:52;;;;;;;4.88;3.03;;;18.60;99.90;;;;;;6228713;22;20208;-96
2023/05/08 15:15:36;;;;;;;4.03;2.80;;;18.60;99.90;;;;;;6228380;22;20227;-96
2023/05/08 15:18:04;;;;;;;6.32;3.10;;;18.70;99.90;;;;;;6231057;23;20185;-96
2023/05/08 15:20:30;;;;;;;7.10;3.30;;;18.60;99.90;;;;;;6234409;23;20157;-96
2023/05/08 15:22:57;;;;;;;4.18;3.20;;;18.50;98.70;;;;;;6241003;23;20188;-95
2023/05/08 15:25:25;;;;;;;6.00;3.22;;;18.50;99.20;;;;;;6240756;23;20172;-96
2023/05/08 15:30:27;;;;;;;4.85;3.25;;;18.50;99.90;;;;;;6242926;22;20192;-96
2023/05/08 15:32:55;;;;;;;4.45;3.17;;;18.50;99.30;;;;;;6239907;23;20172;-96
2023/05/08 15:35:22;;;;;;;3.85;2.50;;;18.50;97.10;;;;;;6235336;23;20173;-96
2023/05/08 15:37:50;;;;;;;4.80;3.05;;;18.50;95.10;;;;;;6239498;23;20177;-96
2023/05/08 15:40:17;;;;;;;3.80;2.90;;;18.40;97.80;;;;;;6240070;23;20180;-96
2023/05/08 15:42:44;;;;;;;3.88;3.10;;;18.40;99.60;;;;;;6228174;23;20188;-95
2023/05/08 15:45:11;;;;;;;4.15;2.80;;;18.40;99.90;;;;;;6240116;23;20165;-96
2023/05/08 15:47:37;;;;;;;7.60;3.22;;;18.40;98.20;;;;;;6235461;23;20208;-96
2023/05/08 15:50:07;;;;;;;6.18;3.00;;;18.40;99.90;;;;;;6224309;23;20172;-96
2023/05/08 15:52:34;;;;;;;7.75;4.00;;;18.40;99.90;;;;;;6224192;23;20196;-96
2023/05/08 15:55:01;;;;;;;5.25;3.38;;;18.40;96.30;;;;;;6223326;23;20196;-96
2023/05/08 15:57:28;;;;;;;6.38;3.85;;;18.40;99.20;;;;;;6225578;23;20229;-96
2023/05/08 15:59:54;;;;;;;3.40;3.08;;;18.30;96.30;;;;;;6227030;23;20189;-96
2023/05/08 16:02:21;;;;;;;3.65;2.92;;;18.40;99.90;;;;;;6224232;23;20168;-96
2023/05/08 16:04:48;;;;;;;5.18;3.20;;;18.30;97.10;;;;;;6226686;23;20176;-96
2023/05/08 16:07:17;;;;;;;7.43;3.10;;;18.30;98.60;;;;;;6226619;23;20267;-96
2023/05/08 16:09:44;;;;;;;5.40;3.40;;;18.20;95.40;;;;;;6228643;23;20172;-96
2023/05/08 16:12:10;;;;;;;5.95;3.50;;;18.20;99.90;;;;;;6223897;23;20177;-96
2023/05/08 16:14:37;;;;;;;4.25;3.00;;;18.10;97.80;;;;;;6225674;23;20161;-96
2023/05/08 16:17:04;;;;;;;5.70;3.20;;;18.00;94.70;;;;;;6228966;23;20165;-96
2023/05/08 16:19:36;;;;;;;5.35;3.28;;;17.90;93.10;;;;;;6235703;23;20186;-96
2023/05/08 16:22:03;;;;;;;5.60;3.22;;;17.90;99.90;;;;;;6226586;23;20161;-96
2023/05/08 16:24:32;;;;;;;5.80;3.55;;;17.80;96.10;;;;;;6227302;23;20236;-96
2023/05/08 16:26:59;;;;;;;8.27;5.40;;;17.80;98.30;;;;;;6226666;23;20191;-96
2023/05/08 16:29:26;;;;;;;4.57;3.20;;;17.80;95.70;;;;;;6225454;23;20280;-96
2023/05/08 16:31:55;;;;;;;11.40;4.90;;;17.80;99.90;;;;;;6235557;23;20152;-96
2023/05/08 16:34:22;;;;;;;5.55;4.28;;;17.70;91.80;;;;;;6234757;23;20165;-96
2023/05/08 16:36:49;;;;;;;7.95;5.13;;;17.60;90.40;;;;;;6239250;23;20173;-96
2023/05/08 16:39:16;;;;;;;15.02;9.68;;;17.60;92.20;;;;;;6234666;22;20207;-96
2023/05/08 16:41:44;;;;;;;11.90;7.32;;;17.70;93.50;;;;;;6237756;23;20180;-96
2023/05/08 16:44:11;;;;;;;9.60;6.65;;;17.70;91.00;;;;;;6224278;22;20238;-96
2023/05/08 16:46:38;;;;;;;6.00;4.25;;;17.80;95.40;;;;;;6229761;23;20173;-95
2023/05/08 16:49:10;;;;;;;4.47;3.55;;;17.80;92.70;;;;;;6233246;23;20180;-96
2023/05/08 16:51:37;;;;;;;5.88;3.67;;;17.90;97.70;;;;;;6233596;23;20172;-96
2023/05/08 16:54:06;;;;;;;8.98;3.80;;;18.00;91.50;;;;;;6231709;23;20169;-96
2023/05/08 16:56:32;;;;;;;4.93;3.38;;;18.10;89.80;;;;;;6234859;23;20901;-96
2023/05/08 17:01:36;;;;;;;8.43;3.90;;;18.40;99.40;;;;;;6230057;22;20208;-96
2023/05/08 17:04:03;;;;;;;4.50;3.63;;;18.70;85.00;;;;;;6238531;22;20160;-94
2023/05/08 17:06:31;;;;;;;5.13;3.40;;;18.90;90.80;;;;;;6257854;22;21247;-96
2023/05/08 17:08:58;;;;;;;8.05;6.45;;;19.10;87.10;;;;;;6227931;23;20204;-96
2023/05/08 17:11:25;;;;;;;6.60;3.53;;;19.30;80.20;;;;;;6236505;22;20207;-96
2023/05/08 17:13:52;;;;;;;8.13;3.05;;;19.40;83.10;;;;;;6237339;23;20679;-96
2023/05/08 17:16:21;;;;;;;6.15;3.03;;;19.60;87.00;;;;;;6229429;23;20175;-94
2023/05/08 17:18:52;;;;;;;3.45;2.97;;;19.60;84.80;;;;;;6222670;23;20179;-96
2023/05/08 17:21:19;;;;;;;4.03;3.47;;;19.70;79.80;;;;;;6231541;22;20202;-96
2023/05/08 17:23:46;;;;;;;5.13;3.65;;;19.80;84.30;;;;;;6222728;23;20205;-96
2023/05/08 17:26:13;;;;;;;5.00;3.20;;;19.90;87.30;;;;;;6222174;23;20207;-95
2023/05/08 17:28:39;;;;;;;5.43;4.45;;;20.10;86.80;;;;;;6220913;23;20688;-96
2023/05/08 17:31:08;;;;;;;6.45;3.80;;;20.10;86.70;;;;;;6228078;23;20157;-96
2023/05/08 17:33:35;;;;;;;6.18;3.88;;;20.00;83.50;;;;;;6229501;23;20619;-96
2023/05/08 17:36:03;;;;;;;5.10;3.80;;;20.00;81.20;;;;;;6220928;23;20643;-95
2023/05/08 17:38:30;;;;;;;7.05;5.72;;;20.00;81.80;;;;;;6219352;23;20715;-96
2023/05/08 17:40:57;;;;;;;6.35;5.03;;;19.80;75.20;;;;;;6220319;23;20229;-96
2023/05/08 17:43:27;;;;;;;7.53;5.30;;;19.20;71.60;;;;;;6219404;23;20611;-94
2023/05/08 17:45:54;;;;;;;7.05;5.07;;;18.30;75.30;;;;;;6219455;23;20153;-95
2023/05/08 17:48:20;;;;;;;7.78;5.55;;;17.50;74.50;;;;;;6218791;23;20280;-94
2023/05/08 17:50:47;;;;;;;5.78;4.80;;;16.90;80.40;;;;;;6219834;23;20175;-95
2023/05/08 17:53:15;;;;;;;6.68;5.07;;;16.40;72.90;;;;;;6226180;23;20248;-96
2023/05/08 17:55:42;;;;;;;8.40;5.05;;;16.00;59.80;;;;;;6223792;23;20251;-95
2023/05/08 17:58:09;;;;;;;6.00;3.75;;;15.70;75.90;;;;;;6223730;23;20253;-95
2023/05/08 18:00:36;;;;;;;5.75;4.13;;;15.50;78.70;;;;;;6219350;23;20242;-95
2023/05/08 18:03:03;;;;;;;4.68;3.60;;;15.20;79.70;;;;;;6219410;23;20207;-96
2023/05/08 18:05:30;;;;;;;5.75;4.20;;;15.00;81.50;;;;;;6218816;23;20504;-96
2023/05/08 18:07:57;;;;;;;4.88;3.72;;;14.80;85.00;;;;;;6219036;23;20183;-96
2023/05/08 18:10:25;;;;;;;6.38;3.80;;;14.50;82.60;;;;;;6219639;23;20180;-96
2023/05/08 18:12:52;;;;;;;9.02;4.60;;;14.40;84.40;;;;;;6219487;23;20185;-95
2023/05/08 18:15:19;;;;;;;6.35;4.32;;;14.20;85.30;;;;;;6220963;23;20206;-96
2023/05/08 18:17:45;;;;;;;5.43;3.97;;;14.10;83.50;;;;;;6221358;23;20174;-95
2023/05/08 18:20:12;;;;;;;6.20;4.00;;;13.90;83.60;;;;;;6222237;23;20905;-95
2023/05/08 18:22:39;;;;;;;6.00;3.97;;;13.80;77.60;;;;;;6222022;23;20612;-95
2023/05/08 18:25:08;;;;;;;6.40;4.20;;;13.70;82.90;;;;;;6228158;23;20618;-96
2023/05/08 18:27:36;;;;;;;7.67;4.03;;;13.50;87.50;;;;;;6235579;22;20980;-96
2023/05/08 18:30:03;;;;;;;5.43;3.90;;;13.40;85.70;;;;;;6243059;22;20253;-96
2023/05/08 18:32:30;;;;;;;5.20;3.60;;;13.30;75.50;;;;;;6244091;23;20228;-96
2023/05/08 18:34:57;;;;;;;6.33;3.57;;;13.20;73.40;;;;;;6237875;22;20191;-96
2023/05/08 18:37:24;;;;;;;5.80;3.53;;;13.00;76.90;;;;;;6232796;23;20196;-96
2023/05/08 18:39:51;;;;;;;5.00;3.47;;;13.00;74.70;;;;;;6223018;23;20259;-94
2023/05/08 18:42:18;;;;;;;5.13;3.47;;;12.90;82.10;;;;;;6220486;23;20172;-95
2023/05/08 18:44:46;;;;;;;4.47;3.53;;;12.70;90.60;;;;;;6228012;23;20182;-95
2023/05/08 18:47:13;;;;;;;6.53;3.97;;;12.60;78.30;;;;;;6231400;23;20178;-95
2023/05/08 18:49:40;;;;;;;8.90;4.13;;;12.50;83.30;;;;;;6226711;23;20171;-96
2023/05/08 18:52:07;;;;;;;7.43;3.97;;;12.40;84.00;;;;;;6223132;23;20178;-95
2023/05/08 18:54:34;;;;;;;6.40;4.60;;;12.30;81.70;;;;;;6233867;23;20612;-95
2023/05/08 18:57:01;;;;;;;5.57;4.53;;;12.30;81.50;;;;;;6232982;23;20166;-96
2023/05/08 18:59:28;;;;;;;7.83;4.90;;;12.20;83.40;;;;;;6225385;23;20166;-93
2023/05/08 19:01:56;;;;;;;6.27;4.70;;;12.10;93.90;;;;;;6226067;23;20226;-96
2023/05/08 19:04:23;;;;;;;6.20;4.53;;;12.00;85.30;;;;;;6236392;23;20178;-96
2023/05/08 19:06:50;;;;;;;4.90;3.97;;;11.90;84.60;;;;;;6238007;23;20173;-96
2023/05/08 19:09:17;;;;;;;6.17;4.60;;;11.90;85.10;;;;;;6235436;23;20192;-95
2023/05/08 19:11:44;;;;;;;6.13;4.10;;;11.80;85.70;;;;;;6228176;23;20188;-95
2023/05/08 19:14:11;;;;;;;4.60;3.60;;;11.70;93.50;;;;;;6228147;23;20217;-95
2023/05/08 19:16:38;;;;;;;4.90;3.80;;;11.60;86.40;;;;;;6231923;23;20169;-95
2023/05/08 19:19:06;;;;;;;6.10;3.60;;;11.60;93.90;;;;;;6227718;23;20172;-96
2023/05/08 19:21:33;;;;;;;5.13;3.33;;;11.50;92.40;;;;;;6219507;23;20195;-95
2023/05/08 19:24:00;;;;;;;3.90;3.10;;;11.50;96.20;;;;;;6219236;23;20510;-94
2023/05/08 19:26:27;;;;;;;4.43;3.40;;;11.50;95.80;;;;;;6230740;23;20207;-95
2023/05/08 19:28:54;;;;;;;8.40;3.47;;;11.40;97.60;;;;;;6224164;23;20588;-95
2023/05/08 19:31:21;;;;;;;5.30;3.67;;;11.30;97.70;;;;;;6223741;23;20172;-95
2023/05/08 19:33:49;;;;;;;4.63;3.47;;;11.30;94.60;;;;;;6223105;23;20183;-95
2023/05/08 19:36:17;;;;;;;4.57;3.60;;;11.20;97.10;;;;;;6221101;23;20253;-96
2023/05/08 19:38:44;;;;;;;4.93;3.60;;;11.10;99.90;;;;;;6220310;23;20176;-95
2023/05/08 19:41:11;;;;;;;4.63;3.80;;;11.10;99.90;;;;;;6219561;23;20178;-95
2023/05/08 19:43:38;;;;;;;6.87;3.87;;;10.90;99.90;;;;;;6222389;23;20260;-96
2023/05/08 19:46:05;;;;;;;6.83;3.93;;;10.80;99.90;;;;;;6219967;23;20191;-95
2023/05/08 19:48:32;;;;;;;6.77;4.00;;;10.70;99.90;;;;;;6219633;23;20200;-95
2023/05/08 19:51:05;;;;;;;4.80;3.90;;;10.60;99.90;;;;;;6225107;23;20190;-95
2023/05/08 19:53:34;;;;;;;5.57;4.30;;;10.60;99.90;;;;;;6231827;23;20185;-96
2023/05/08 19:56:01;;;;;;;7.37;3.80;;;10.60;99.90;;;;;;6224590;23;20201;-95
2023/05/08 19:58:28;;;;;;;5.97;3.57;;;10.70;99.90;;;;;;6228021;23;20202;-95
2023/05/08 20:00:55;;;;;;;5.97;3.67;;;10.70;99.90;;;;;;6224304;23;20181;-94
2023/05/08 20:03:22;;;;;;;5.30;3.70;;;10.70;99.90;;;;;;6218502;23;20248;-95
2023/05/08 20:05:50;;;;;;;5.87;3.70;;;10.70;99.90;;;;;;6221102;23;20252;-95
2023/05/08 20:08:17;;;;;;;5.53;3.73;;;10.70;99.90;;;;;;6223359;23;20187;-94
2023/05/08 20:10:47;;;;;;;6.03;4.00;;;10.60;99.90;;;;;;6217539;23;20257;-95
2023/05/08 20:13:14;;;;;;;7.40;3.90;;;10.60;99.90;;;;;;6218807;23;20162;-95
2023/05/08 20:15:41;;;;;;;6.40;3.70;;;10.60;99.90;;;;;;6220551;23;20190;-95
2023/05/08 20:18:08;;;;;;;5.77;3.67;;;10.50;99.90;;;;;;6217066;23;20205;-94